< Typhoon 198208 1982 Season Typhoon 198210 >
Typhoon 198209 (ANDY)
General InformationTrack Information on Google MapsDetailed Wind InformationList of All Images || NewsDisaster Info.ResourceGoogle EarthGE AnimationAtom FeedGeoJSON
Detalied Best Track (Time Zone = UTC)
Year Month Day Hour Lat. Long. Pressure (hPa) Wind (kt) Class Image Chart
1982 7 21 00 12.0 147.5 1006 0 2 Image Chart
1982 7 21 06 11.9 147.0 1004 0 2 Image Chart
1982 7 21 12 11.8 146.5 1002 0 2 Image Chart
1982 7 21 18 11.7 146.0 1000 0 2 Image Chart
1982 7 22 00 11.5 145.5 998 0 2 Image Chart
1982 7 22 06 11.5 145.2 996 35 3 Image Chart
1982 7 22 12 11.6 145.0 990 45 3 Image Chart
1982 7 22 18 11.8 144.9 990 45 3 Image Chart
1982 7 23 00 11.9 144.5 990 45 3 Image Chart
1982 7 23 06 11.9 144.1 985 50 4 Image Chart
1982 7 23 12 12.1 143.5 985 50 4 Image Chart
1982 7 23 18 12.5 143.3 985 55 4 Image Chart
1982 7 24 00 13.2 143.0 985 55 4 Image Chart
1982 7 24 06 13.8 142.5 980 65 5 Image Chart
1982 7 24 12 14.5 141.9 980 65 5 Image Chart
1982 7 24 18 15.2 141.3 980 70 5 Image Chart
1982 7 25 00 16.1 140.6 975 70 5 Image Chart
1982 7 25 06 16.8 139.8 970 75 5 Image Chart
1982 7 25 12 17.5 138.5 970 80 5 Image Chart
1982 7 25 18 18.0 136.7 970 80 5 Image Chart
1982 7 26 00 18.3 134.8 965 80 5 Image Chart
1982 7 26 06 18.4 133.4 960 85 5 Image Chart
1982 7 26 12 18.4 132.0 950 90 5 Image Chart
1982 7 26 18 18.8 130.6 950 90 5 Image Chart
1982 7 27 00 19.3 129.3 945 90 5 Image Chart
1982 7 27 06 19.8 128.1 945 90 5 Image Chart
1982 7 27 12 20.2 126.9 945 90 5 Image Chart
1982 7 27 18 20.7 125.6 945 90 5 Image Chart
1982 7 28 00 21.1 124.6 940 100 5 Image Chart
1982 7 28 06 21.5 123.6 935 100 5 Image Chart
1982 7 28 12 21.9 122.5 930 100 5 Image Chart
1982 7 28 18 22.5 121.8 930 100 5 Image Chart
1982 7 29 00 23.1 120.8 955 80 5 Image Chart
1982 7 29 06 23.8 119.7 970 70 5 Image Chart
1982 7 29 12 24.5 119.1 975 60 4 Image Chart
1982 7 29 18 25.3 118.5 980 50 4 Image Chart
1982 7 30 00 26.0 118.0 988 45 3 Image Chart
1982 7 30 06 26.8 117.0 991 0 2 Image Chart
1982 7 30 12 27.5 116.0 994 0 2 Image Chart
1982 7 30 18 29.0 115.5 995 0 2 Image Chart
1982 7 31 00 29.5 115.0 996 0 2 Image Chart
1982 7 31 06 30.5 114.5 996 0 2 Image Chart
1982 7 31 12 31.5 114.0 996 0 2 Image Chart
1982 7 31 18 31.5 113.5 996 0 2 Image Chart
1982 8 1 00 31.5 113.0 998 0 2 Image Chart
Japan Meteorological Agency Best Track Data | Correction Date : 1993-07-19
< Typhoon 198208 1982 Season Typhoon 198210 >

Help